sensor_id;sensor_type;location;lat;lon;timestamp;temperature;humidity
21115;DHT22;10715;48.546;9.896;2023-11-22T00:00:29;5.70;99.90
21115;DHT22;10715;48.546;9.896;2023-11-22T00:02:55;5.70;99.90
21115;DHT22;10715;48.546;9.896;2023-11-22T00:05:21;5.70;99.90
21115;DHT22;10715;48.546;9.896;2023-11-22T00:07:46;5.70;99.90
21115;DHT22;10715;48.546;9.896;2023-11-22T00:10:13;5.70;99.90
21115;DHT22;10715;48.546;9.896;2023-11-22T00:12:39;5.70;99.90
21115;DHT22;10715;48.546;9.896;2023-11-22T00:15:06;5.70;99.90
21115;DHT22;10715;48.546;9.896;2023-11-22T00:17:32;5.70;99.90
21115;DHT22;10715;48.546;9.896;2023-11-22T00:19:59;5.70;99.90
21115;DHT22;10715;48.546;9.896;2023-11-22T00:22:27;5.70;99.90
21115;DHT22;10715;48.546;9.896;2023-11-22T00:24:53;5.70;99.90
21115;DHT22;10715;48.546;9.896;2023-11-22T00:27:19;5.70;99.90
21115;DHT22;10715;48.546;9.896;2023-11-22T00:29:45;5.70;99.90
21115;DHT22;10715;48.546;9.896;2023-11-22T00:32:12;5.70;99.90
21115;DHT22;10715;48.546;9.896;2023-11-22T00:34:38;5.70;99.90
21115;DHT22;10715;48.546;9.896;2023-11-22T00:37:04;5.70;99.90
21115;DHT22;10715;48.546;9.896;2023-11-22T00:39:29;5.70;99.90
21115;DHT22;10715;48.546;9.896;2023-11-22T00:41:55;5.70;99.90
21115;DHT22;10715;48.546;9.896;2023-11-22T00:44:21;5.70;99.90
21115;DHT22;10715;48.546;9.896;2023-11-22T00:46:47;5.70;99.90
21115;DHT22;10715;48.546;9.896;2023-11-22T00:49:13;5.70;99.90
21115;DHT22;10715;48.546;9.896;2023-11-22T00:51:38;5.70;99.90
21115;DHT22;10715;48.546;9.896;2023-11-22T00:54:05;5.70;99.90
21115;DHT22;10715;48.546;9.896;2023-11-22T00:56:32;5.70;99.90
21115;DHT22;10715;48.546;9.896;2023-11-22T00:58:58;5.70;99.90
21115;DHT22;10715;48.546;9.896;2023-11-22T01:01:26;5.70;99.90
21115;DHT22;10715;48.546;9.896;2023-11-22T01:03:52;5.70;99.90
21115;DHT22;10715;48.546;9.896;2023-11-22T01:06:17;5.60;99.90
21115;DHT22;10715;48.546;9.896;2023-11-22T01:08:43;5.50;99.90
21115;DHT22;10715;48.546;9.896;2023-11-22T01:11:09;5.50;99.90
21115;DHT22;10715;48.546;9.896;2023-11-22T01:13:35;5.40;99.90
21115;DHT22;10715;48.546;9.896;2023-11-22T01:16:10;5.30;99.90
21115;DHT22;10715;48.546;9.896;2023-11-22T01:18:36;5.20;99.90
21115;DHT22;10715;48.546;9.896;2023-11-22T01:21:02;5.20;99.90
21115;DHT22;10715;48.546;9.896;2023-11-22T01:23:32;5.10;99.90
21115;DHT22;10715;48.546;9.896;2023-11-22T01:25:58;5.00;99.90
21115;DHT22;10715;48.546;9.896;2023-11-22T01:28:25;5.00;99.90
21115;DHT22;10715;48.546;9.896;2023-11-22T01:30:53;5.00;99.90
21115;DHT22;10715;48.546;9.896;2023-11-22T01:33:23;4.90;99.90
21115;DHT22;10715;48.546;9.896;2023-11-22T01:35:49;4.90;99.90
21115;DHT22;10715;48.546;9.896;2023-11-22T01:38:17;4.80;99.90
21115;DHT22;10715;48.546;9.896;2023-11-22T01:40:44;4.80;99.90
21115;DHT22;10715;48.546;9.896;2023-11-22T01:43:17;4.80;99.90
21115;DHT22;10715;48.546;9.896;2023-11-22T01:45:44;4.70;99.90
21115;DHT22;10715;48.546;9.896;2023-11-22T01:48:13;4.70;99.90
21115;DHT22;10715;48.546;9.896;2023-11-22T01:50:42;4.70;99.90
21115;DHT22;10715;48.546;9.896;2023-11-22T01:53:11;4.60;99.90
21115;DHT22;10715;48.546;9.896;2023-11-22T01:55:38;4.50;99.90
21115;DHT22;10715;48.546;9.896;2023-11-22T01:58:05;4.50;99.90
21115;DHT22;10715;48.546;9.896;2023-11-22T02:00:35;4.50;99.90
21115;DHT22;10715;48.546;9.896;2023-11-22T02:03:02;4.40;99.90
21115;DHT22;10715;48.546;9.896;2023-11-22T02:05:28;4.40;99.90
21115;DHT22;10715;48.546;9.896;2023-11-22T02:07:54;4.40;99.90
21115;DHT22;10715;48.546;9.896;2023-11-22T02:10:21;4.30;99.90
21115;DHT22;10715;48.546;9.896;2023-11-22T02:12:46;4.30;99.90
21115;DHT22;10715;48.546;9.896;2023-11-22T02:15:12;4.30;99.90
21115;DHT22;10715;48.546;9.896;2023-11-22T02:17:38;4.20;99.90
21115;DHT22;10715;48.546;9.896;2023-11-22T02:20:05;4.20;99.90
21115;DHT22;10715;48.546;9.896;2023-11-22T02:22:41;4.20;99.90
21115;DHT22;10715;48.546;9.896;2023-11-22T02:25:07;4.10;99.90
21115;DHT22;10715;48.546;9.896;2023-11-22T02:27:33;4.10;99.90
21115;DHT22;10715;48.546;9.896;2023-11-22T02:29:59;4.00;99.90
21115;DHT22;10715;48.546;9.896;2023-11-22T02:32:25;4.00;99.90
21115;DHT22;10715;48.546;9.896;2023-11-22T02:34:52;4.00;99.90
21115;DHT22;10715;48.546;9.896;2023-11-22T02:37:18;4.00;99.90
21115;DHT22;10715;48.546;9.896;2023-11-22T02:40:04;3.90;99.90
21115;DHT22;10715;48.546;9.896;2023-11-22T02:42:30;3.90;99.90
21115;DHT22;10715;48.546;9.896;2023-11-22T02:44:56;3.90;99.90
21115;DHT22;10715;48.546;9.896;2023-11-22T02:47:23;3.90;99.90
21115;DHT22;10715;48.546;9.896;2023-11-22T02:49:50;3.90;99.90
21115;DHT22;10715;48.546;9.896;2023-11-22T02:52:15;3.80;99.90
21115;DHT22;10715;48.546;9.896;2023-11-22T02:54:44;3.80;99.90
21115;DHT22;10715;48.546;9.896;2023-11-22T02:57:13;3.80;99.90
21115;DHT22;10715;48.546;9.896;2023-11-22T02:59:43;3.80;99.90
21115;DHT22;10715;48.546;9.896;2023-11-22T03:02:10;3.70;99.90
21115;DHT22;10715;48.546;9.896;2023-11-22T03:04:37;3.70;99.90
21115;DHT22;10715;48.546;9.896;2023-11-22T03:07:04;3.70;99.90
21115;DHT22;10715;48.546;9.896;2023-11-22T03:09:32;3.70;99.90
21115;DHT22;10715;48.546;9.896;2023-11-22T03:11:58;3.70;99.90
21115;DHT22;10715;48.546;9.896;2023-11-22T03:14:25;3.70;99.90
21115;DHT22;10715;48.546;9.896;2023-11-22T03:16:51;3.70;99.90
21115;DHT22;10715;48.546;9.896;2023-11-22T03:19:17;3.70;99.90
21115;DHT22;10715;48.546;9.896;2023-11-22T03:21:45;3.60;99.90
21115;DHT22;10715;48.546;9.896;2023-11-22T03:24:11;3.60;99.90
21115;DHT22;10715;48.546;9.896;2023-11-22T03:26:37;3.60;99.90
21115;DHT22;10715;48.546;9.896;2023-11-22T03:29:02;3.50;99.90
21115;DHT22;10715;48.546;9.896;2023-11-22T03:31:28;3.50;99.90
21115;DHT22;10715;48.546;9.896;2023-11-22T03:33:56;3.50;99.90
21115;DHT22;10715;48.546;9.896;2023-11-22T03:36:22;3.40;99.90
21115;DHT22;10715;48.546;9.896;2023-11-22T03:38:48;3.40;99.90
21115;DHT22;10715;48.546;9.896;2023-11-22T03:41:14;3.40;99.90
21115;DHT22;10715;48.546;9.896;2023-11-22T03:43:40;3.30;99.90
21115;DHT22;10715;48.546;9.896;2023-11-22T03:46:06;3.30;99.90
21115;DHT22;10715;48.546;9.896;2023-11-22T03:48:32;3.20;99.90
21115;DHT22;10715;48.546;9.896;2023-11-22T03:50:58;3.20;99.90
21115;DHT22;10715;48.546;9.896;2023-11-22T03:53:23;3.20;99.90
21115;DHT22;10715;48.546;9.896;2023-11-22T03:55:49;3.10;99.90
21115;DHT22;10715;48.546;9.896;2023-11-22T03:58:15;3.10;99.90
21115;DHT22;10715;48.546;9.896;2023-11-22T04:00:41;3.00;99.90
21115;DHT22;10715;48.546;9.896;2023-11-22T04:03:07;3.00;99.90
21115;DHT22;10715;48.546;9.896;2023-11-22T04:05:33;2.90;99.90
21115;DHT22;10715;48.546;9.896;2023-11-22T04:07:59;2.90;99.90
21115;DHT22;10715;48.546;9.896;2023-11-22T04:10:24;2.80;99.90
21115;DHT22;10715;48.546;9.896;2023-11-22T04:12:50;2.80;99.90
21115;DHT22;10715;48.546;9.896;2023-11-22T04:15:16;2.70;99.90
21115;DHT22;10715;48.546;9.896;2023-11-22T04:17:42;2.60;99.90
21115;DHT22;10715;48.546;9.896;2023-11-22T04:20:08;2.60;99.90
21115;DHT22;10715;48.546;9.896;2023-11-22T04:22:42;2.50;99.90
21115;DHT22;10715;48.546;9.896;2023-11-22T04:25:10;2.50;99.90
21115;DHT22;10715;48.546;9.896;2023-11-22T04:27:39;2.50;99.90
21115;DHT22;10715;48.546;9.896;2023-11-22T04:30:07;2.40;99.90
21115;DHT22;10715;48.546;9.896;2023-11-22T04:32:40;2.40;99.90
21115;DHT22;10715;48.546;9.896;2023-11-22T04:35:09;2.30;99.90
21115;DHT22;10715;48.546;9.896;2023-11-22T04:37:36;2.30;99.90
21115;DHT22;10715;48.546;9.896;2023-11-22T04:40:03;2.20;99.90
21115;DHT22;10715;48.546;9.896;2023-11-22T04:42:34;2.20;99.90
21115;DHT22;10715;48.546;9.896;2023-11-22T04:45:00;2.20;99.90
21115;DHT22;10715;48.546;9.896;2023-11-22T04:47:26;2.10;99.90
21115;DHT22;10715;48.546;9.896;2023-11-22T04:49:51;2.10;99.90
21115;DHT22;10715;48.546;9.896;2023-11-22T04:52:17;2.10;99.90
21115;DHT22;10715;48.546;9.896;2023-11-22T04:54:43;2.10;99.90
21115;DHT22;10715;48.546;9.896;2023-11-22T04:57:09;2.10;99.90
21115;DHT22;10715;48.546;9.896;2023-11-22T04:59:34;2.10;99.90
21115;DHT22;10715;48.546;9.896;2023-11-22T05:02:00;2.10;99.90
21115;DHT22;10715;48.546;9.896;2023-11-22T05:04:26;2.10;99.90
21115;DHT22;10715;48.546;9.896;2023-11-22T05:06:53;2.10;99.90
21115;DHT22;10715;48.546;9.896;2023-11-22T05:09:19;2.10;99.90
21115;DHT22;10715;48.546;9.896;2023-11-22T05:11:45;2.00;99.90
21115;DHT22;10715;48.546;9.896;2023-11-22T05:14:11;2.00;99.90
21115;DHT22;10715;48.546;9.896;2023-11-22T05:16:38;2.00;99.90
21115;DHT22;10715;48.546;9.896;2023-11-22T05:19:04;1.90;99.90
21115;DHT22;10715;48.546;9.896;2023-11-22T05:21:31;1.90;99.90
21115;DHT22;10715;48.546;9.896;2023-11-22T05:23:58;1.90;99.90
21115;DHT22;10715;48.546;9.896;2023-11-22T05:26:24;1.80;99.90
21115;DHT22;10715;48.546;9.896;2023-11-22T05:28:50;1.80;99.90
21115;DHT22;10715;48.546;9.896;2023-11-22T05:31:20;1.80;99.90
21115;DHT22;10715;48.546;9.896;2023-11-22T05:33:46;1.80;99.90
21115;DHT22;10715;48.546;9.896;2023-11-22T05:36:11;1.80;99.90
21115;DHT22;10715;48.546;9.896;2023-11-22T05:38:37;1.80;99.90
21115;DHT22;10715;48.546;9.896;2023-11-22T05:41:05;1.80;99.90
21115;DHT22;10715;48.546;9.896;2023-11-22T05:43:32;1.80;99.90
21115;DHT22;10715;48.546;9.896;2023-11-22T05:46:03;1.80;99.90
21115;DHT22;10715;48.546;9.896;2023-11-22T05:48:29;1.80;99.90
21115;DHT22;10715;48.546;9.896;2023-11-22T05:50:54;1.70;99.90
21115;DHT22;10715;48.546;9.896;2023-11-22T05:53:20;1.70;99.90
21115;DHT22;10715;48.546;9.896;2023-11-22T05:55:50;1.70;99.90
21115;DHT22;10715;48.546;9.896;2023-11-22T05:58:16;1.70;99.90
21115;DHT22;10715;48.546;9.896;2023-11-22T06:00:48;1.70;99.90
21115;DHT22;10715;48.546;9.896;2023-11-22T06:03:14;1.70;99.90
21115;DHT22;10715;48.546;9.896;2023-11-22T06:05:40;1.70;99.90
21115;DHT22;10715;48.546;9.896;2023-11-22T06:08:06;1.60;99.90
21115;DHT22;10715;48.546;9.896;2023-11-22T06:10:32;1.60;99.90
21115;DHT22;10715;48.546;9.896;2023-11-22T06:12:58;1.60;99.90
21115;DHT22;10715;48.546;9.896;2023-11-22T06:15:23;1.60;99.90
21115;DHT22;10715;48.546;9.896;2023-11-22T06:17:49;1.60;99.90
21115;DHT22;10715;48.546;9.896;2023-11-22T06:20:15;1.50;99.90
21115;DHT22;10715;48.546;9.896;2023-11-22T06:22:41;1.50;99.90
21115;DHT22;10715;48.546;9.896;2023-11-22T06:25:11;1.50;99.90
21115;DHT22;10715;48.546;9.896;2023-11-22T06:27:38;1.40;99.90
21115;DHT22;10715;48.546;9.896;2023-11-22T06:30:04;1.40;99.90
21115;DHT22;10715;48.546;9.896;2023-11-22T06:32:32;1.30;99.90
21115;DHT22;10715;48.546;9.896;2023-11-22T06:34:59;1.30;99.90
21115;DHT22;10715;48.546;9.896;2023-11-22T06:37:25;1.20;99.90
21115;DHT22;10715;48.546;9.896;2023-11-22T06:39:51;1.20;99.90
21115;DHT22;10715;48.546;9.896;2023-11-22T06:42:17;1.20;99.90
21115;DHT22;10715;48.546;9.896;2023-11-22T06:44:45;1.20;99.90
21115;DHT22;10715;48.546;9.896;2023-11-22T06:47:16;1.10;99.90
21115;DHT22;10715;48.546;9.896;2023-11-22T06:49:42;1.10;99.90
21115;DHT22;10715;48.546;9.896;2023-11-22T06:52:09;1.00;99.90
21115;DHT22;10715;48.546;9.896;2023-11-22T06:54:35;1.00;99.90
21115;DHT22;10715;48.546;9.896;2023-11-22T06:57:02;1.00;99.90
21115;DHT22;10715;48.546;9.896;2023-11-22T06:59:28;1.00;99.90
21115;DHT22;10715;48.546;9.896;2023-11-22T07:01:54;0.90;99.90
21115;DHT22;10715;48.546;9.896;2023-11-22T07:04:21;0.90;99.90
21115;DHT22;10715;48.546;9.896;2023-11-22T07:06:48;0.90;99.90
21115;DHT22;10715;48.546;9.896;2023-11-22T07:09:14;0.90;99.90
21115;DHT22;10715;48.546;9.896;2023-11-22T07:11:40;0.90;99.90
21115;DHT22;10715;48.546;9.896;2023-11-22T07:14:06;0.90;99.90
21115;DHT22;10715;48.546;9.896;2023-11-22T07:16:35;0.90;99.90
21115;DHT22;10715;48.546;9.896;2023-11-22T07:19:03;0.90;99.90
21115;DHT22;10715;48.546;9.896;2023-11-22T07:21:30;0.90;99.90
21115;DHT22;10715;48.546;9.896;2023-11-22T07:23:56;0.90;99.90
21115;DHT22;10715;48.546;9.896;2023-11-22T07:26:24;0.90;99.90
21115;DHT22;10715;48.546;9.896;2023-11-22T07:28:52;0.90;99.90
21115;DHT22;10715;48.546;9.896;2023-11-22T07:31:18;0.90;99.90
21115;DHT22;10715;48.546;9.896;2023-11-22T07:33:45;0.90;99.90
21115;DHT22;10715;48.546;9.896;2023-11-22T07:36:12;0.90;99.90
21115;DHT22;10715;48.546;9.896;2023-11-22T07:38:41;0.80;99.90
21115;DHT22;10715;48.546;9.896;2023-11-22T07:41:08;0.80;99.90
21115;DHT22;10715;48.546;9.896;2023-11-22T07:43:34;0.80;99.90
21115;DHT22;10715;48.546;9.896;2023-11-22T07:46:00;0.80;99.90
21115;DHT22;10715;48.546;9.896;2023-11-22T07:48:26;0.80;99.90
21115;DHT22;10715;48.546;9.896;2023-11-22T07:50:53;0.80;99.90
21115;DHT22;10715;48.546;9.896;2023-11-22T07:53:20;0.90;99.90
21115;DHT22;10715;48.546;9.896;2023-11-22T07:55:45;0.90;99.90
21115;DHT22;10715;48.546;9.896;2023-11-22T07:58:12;0.90;99.90
21115;DHT22;10715;48.546;9.896;2023-11-22T08:00:38;0.90;99.90
21115;DHT22;10715;48.546;9.896;2023-11-22T08:03:04;0.90;99.90
21115;DHT22;10715;48.546;9.896;2023-11-22T08:05:31;0.90;99.90
21115;DHT22;10715;48.546;9.896;2023-11-22T08:08:03;0.90;99.90
21115;DHT22;10715;48.546;9.896;2023-11-22T08:10:36;0.90;99.90
21115;DHT22;10715;48.546;9.896;2023-11-22T08:13:03;0.90;99.90
21115;DHT22;10715;48.546;9.896;2023-11-22T08:15:31;0.90;99.90
21115;DHT22;10715;48.546;9.896;2023-11-22T08:18:05;0.90;99.90
21115;DHT22;10715;48.546;9.896;2023-11-22T08:20:34;0.90;99.90
21115;DHT22;10715;48.546;9.896;2023-11-22T08:23:26;0.80;99.90
21115;DHT22;10715;48.546;9.896;2023-11-22T08:25:53;0.80;99.90
21115;DHT22;10715;48.546;9.896;2023-11-22T08:28:20;0.80;99.90
21115;DHT22;10715;48.546;9.896;2023-11-22T08:30:46;0.90;99.90
21115;DHT22;10715;48.546;9.896;2023-11-22T08:33:12;0.80;99.90
21115;DHT22;10715;48.546;9.896;2023-11-22T08:35:59;0.80;99.90
21115;DHT22;10715;48.546;9.896;2023-11-22T08:38:28;0.80;99.90
21115;DHT22;10715;48.546;9.896;2023-11-22T08:40:54;0.80;99.90
21115;DHT22;10715;48.546;9.896;2023-11-22T08:43:38;0.80;99.90
21115;DHT22;10715;48.546;9.896;2023-11-22T08:46:04;0.80;99.90
21115;DHT22;10715;48.546;9.896;2023-11-22T08:48:30;0.80;99.90
21115;DHT22;10715;48.546;9.896;2023-11-22T08:50:56;0.80;99.90
21115;DHT22;10715;48.546;9.896;2023-11-22T08:53:27;0.80;99.90
21115;DHT22;10715;48.546;9.896;2023-11-22T08:55:56;0.80;99.90
21115;DHT22;10715;48.546;9.896;2023-11-22T08:58:23;0.80;99.90
21115;DHT22;10715;48.546;9.896;2023-11-22T09:00:48;0.80;99.90
21115;DHT22;10715;48.546;9.896;2023-11-22T09:03:14;0.80;99.90
21115;DHT22;10715;48.546;9.896;2023-11-22T09:05:43;0.80;99.90
21115;DHT22;10715;48.546;9.896;2023-11-22T09:08:09;0.80;99.90
21115;DHT22;10715;48.546;9.896;2023-11-22T09:10:41;0.80;99.90
21115;DHT22;10715;48.546;9.896;2023-11-22T09:13:08;0.80;99.90
21115;DHT22;10715;48.546;9.896;2023-11-22T09:15:35;0.80;99.90
21115;DHT22;10715;48.546;9.896;2023-11-22T09:18:01;0.80;99.90
21115;DHT22;10715;48.546;9.896;2023-11-22T09:20:27;0.80;99.90
21115;DHT22;10715;48.546;9.896;2023-11-22T09:22:54;0.80;99.90
21115;DHT22;10715;48.546;9.896;2023-11-22T09:25:24;0.80;99.90
21115;DHT22;10715;48.546;9.896;2023-11-22T09:27:52;0.80;99.90
21115;DHT22;10715;48.546;9.896;2023-11-22T09:30:22;0.80;99.90
21115;DHT22;10715;48.546;9.896;2023-11-22T09:33:08;0.80;99.90
21115;DHT22;10715;48.546;9.896;2023-11-22T09:35:36;0.80;99.90
21115;DHT22;10715;48.546;9.896;2023-11-22T09:38:05;0.80;99.90
21115;DHT22;10715;48.546;9.896;2023-11-22T09:40:34;0.80;99.90
21115;DHT22;10715;48.546;9.896;2023-11-22T09:43:02;0.80;99.90
21115;DHT22;10715;48.546;9.896;2023-11-22T09:45:29;0.80;99.90
21115;DHT22;10715;48.546;9.896;2023-11-22T09:47:56;0.70;99.90
21115;DHT22;10715;48.546;9.896;2023-11-22T09:51:04;0.70;99.90
21115;DHT22;10715;48.546;9.896;2023-11-22T09:53:40;0.70;99.90
21115;DHT22;10715;48.546;9.896;2023-11-22T09:56:08;0.70;99.90
21115;DHT22;10715;48.546;9.896;2023-11-22T09:58:35;0.80;99.90
21115;DHT22;10715;48.546;9.896;2023-11-22T10:01:05;0.70;99.90
21115;DHT22;10715;48.546;9.896;2023-11-22T10:03:31;0.70;99.90
21115;DHT22;10715;48.546;9.896;2023-11-22T10:05:58;0.70;99.90
21115;DHT22;10715;48.546;9.896;2023-11-22T10:08:30;0.70;99.90
21115;DHT22;10715;48.546;9.896;2023-11-22T10:10:57;0.70;99.90
21115;DHT22;10715;48.546;9.896;2023-11-22T10:13:23;0.70;99.90
21115;DHT22;10715;48.546;9.896;2023-11-22T10:15:53;0.80;99.90
21115;DHT22;10715;48.546;9.896;2023-11-22T10:18:19;0.80;99.90
21115;DHT22;10715;48.546;9.896;2023-11-22T10:20:47;0.80;99.90
21115;DHT22;10715;48.546;9.896;2023-11-22T10:23:14;0.80;99.90
21115;DHT22;10715;48.546;9.896;2023-11-22T10:25:51;0.80;99.90
21115;DHT22;10715;48.546;9.896;2023-11-22T10:28:21;0.80;99.90
21115;DHT22;10715;48.546;9.896;2023-11-22T10:30:49;0.90;99.90
21115;DHT22;10715;48.546;9.896;2023-11-22T10:33:18;0.90;99.90
21115;DHT22;10715;48.546;9.896;2023-11-22T10:35:50;0.90;99.90
21115;DHT22;10715;48.546;9.896;2023-11-22T10:38:17;0.90;99.90
21115;DHT22;10715;48.546;9.896;2023-11-22T10:40:44;0.90;99.90
21115;DHT22;10715;48.546;9.896;2023-11-22T10:43:14;0.80;99.90
21115;DHT22;10715;48.546;9.896;2023-11-22T10:45:41;0.80;99.90
21115;DHT22;10715;48.546;9.896;2023-11-22T10:48:14;0.90;99.90
21115;DHT22;10715;48.546;9.896;2023-11-22T10:50:42;0.90;99.90
21115;DHT22;10715;48.546;9.896;2023-11-22T10:53:11;0.90;99.90
21115;DHT22;10715;48.546;9.896;2023-11-22T10:55:44;0.80;99.90
21115;DHT22;10715;48.546;9.896;2023-11-22T10:58:11;0.80;99.90
21115;DHT22;10715;48.546;9.896;2023-11-22T11:00:41;0.80;99.90
21115;DHT22;10715;48.546;9.896;2023-11-22T11:03:14;0.80;99.90
21115;DHT22;10715;48.546;9.896;2023-11-22T11:05:54;0.80;99.90
21115;DHT22;10715;48.546;9.896;2023-11-22T11:08:25;0.80;99.90
21115;DHT22;10715;48.546;9.896;2023-11-22T11:10:53;0.80;99.90
21115;DHT22;10715;48.546;9.896;2023-11-22T11:13:21;0.80;99.90
21115;DHT22;10715;48.546;9.896;2023-11-22T11:15:49;0.80;99.90
21115;DHT22;10715;48.546;9.896;2023-11-22T11:18:16;0.80;99.90
21115;DHT22;10715;48.546;9.896;2023-11-22T11:20:50;0.80;99.90
21115;DHT22;10715;48.546;9.896;2023-11-22T11:23:17;0.80;99.90
21115;DHT22;10715;48.546;9.896;2023-11-22T11:25:50;0.80;99.90
21115;DHT22;10715;48.546;9.896;2023-11-22T11:28:18;0.90;99.90
21115;DHT22;10715;48.546;9.896;2023-11-22T11:30:45;0.90;99.90
21115;DHT22;10715;48.546;9.896;2023-11-22T11:33:27;0.90;99.90
21115;DHT22;10715;48.546;9.896;2023-11-22T11:35:57;0.90;99.90
21115;DHT22;10715;48.546;9.896;2023-11-22T11:38:31;0.90;99.90
21115;DHT22;10715;48.546;9.896;2023-11-22T11:41:09;0.80;99.90
21115;DHT22;10715;48.546;9.896;2023-11-22T11:43:48;0.90;99.90
21115;DHT22;10715;48.546;9.896;2023-11-22T11:46:16;0.90;99.90
21115;DHT22;10715;48.546;9.896;2023-11-22T11:48:49;0.80;99.90
21115;DHT22;10715;48.546;9.896;2023-11-22T11:51:17;0.80;99.90
21115;DHT22;10715;48.546;9.896;2023-11-22T11:53:44;0.80;99.90
21115;DHT22;10715;48.546;9.896;2023-11-22T11:56:10;0.80;99.90
21115;DHT22;10715;48.546;9.896;2023-11-22T11:58:37;0.80;99.90
21115;DHT22;10715;48.546;9.896;2023-11-22T12:01:06;0.80;99.90
21115;DHT22;10715;48.546;9.896;2023-11-22T12:03:33;0.80;99.90
21115;DHT22;10715;48.546;9.896;2023-11-22T12:06:01;0.80;99.90
21115;DHT22;10715;48.546;9.896;2023-11-22T12:08:27;0.80;99.90
21115;DHT22;10715;48.546;9.896;2023-11-22T12:10:56;0.90;99.90
21115;DHT22;10715;48.546;9.896;2023-11-22T12:13:24;0.90;99.90
21115;DHT22;10715;48.546;9.896;2023-11-22T12:15:52;0.90;99.90
21115;DHT22;10715;48.546;9.896;2023-11-22T12:18:22;0.90;99.90
21115;DHT22;10715;48.546;9.896;2023-11-22T12:20:58;0.90;99.90
21115;DHT22;10715;48.546;9.896;2023-11-22T12:23:25;0.90;99.90
21115;DHT22;10715;48.546;9.896;2023-11-22T12:25:55;0.90;99.90
21115;DHT22;10715;48.546;9.896;2023-11-22T12:28:23;1.00;99.90
21115;DHT22;10715;48.546;9.896;2023-11-22T12:30:49;1.00;99.90
21115;DHT22;10715;48.546;9.896;2023-11-22T12:33:16;1.00;99.90
21115;DHT22;10715;48.546;9.896;2023-11-22T12:35:43;1.00;99.90
21115;DHT22;10715;48.546;9.896;2023-11-22T12:38:09;1.00;99.90
21115;DHT22;10715;48.546;9.896;2023-11-22T12:40:35;0.90;99.90
21115;DHT22;10715;48.546;9.896;2023-11-22T12:43:02;0.90;99.90
21115;DHT22;10715;48.546;9.896;2023-11-22T12:45:30;0.90;99.90
21115;DHT22;10715;48.546;9.896;2023-11-22T12:47:56;0.90;99.90
21115;DHT22;10715;48.546;9.896;2023-11-22T12:50:33;0.90;99.90
21115;DHT22;10715;48.546;9.896;2023-11-22T12:53:08;0.90;99.90
21115;DHT22;10715;48.546;9.896;2023-11-22T12:55:43;0.90;99.90
21115;DHT22;10715;48.546;9.896;2023-11-22T12:58:17;0.90;99.90
21115;DHT22;10715;48.546;9.896;2023-11-22T13:00:45;0.90;99.90
21115;DHT22;10715;48.546;9.896;2023-11-22T13:03:11;0.90;99.90
21115;DHT22;10715;48.546;9.896;2023-11-22T13:05:39;0.90;99.90
21115;DHT22;10715;48.546;9.896;2023-11-22T13:08:05;0.80;99.90
21115;DHT22;10715;48.546;9.896;2023-11-22T13:10:31;0.80;99.90
21115;DHT22;10715;48.546;9.896;2023-11-22T13:12:57;0.80;99.90
21115;DHT22;10715;48.546;9.896;2023-11-22T13:15:23;0.80;99.90
21115;DHT22;10715;48.546;9.896;2023-11-22T13:17:52;0.80;99.90
21115;DHT22;10715;48.546;9.896;2023-11-22T13:20:25;0.80;99.90
21115;DHT22;10715;48.546;9.896;2023-11-22T13:22:54;0.80;99.90
21115;DHT22;10715;48.546;9.896;2023-11-22T13:25:21;0.80;99.90
21115;DHT22;10715;48.546;9.896;2023-11-22T13:27:50;0.80;99.90
21115;DHT22;10715;48.546;9.896;2023-11-22T13:30:20;0.80;99.90
21115;DHT22;10715;48.546;9.896;2023-11-22T13:32:49;0.80;99.90
21115;DHT22;10715;48.546;9.896;2023-11-22T13:35:15;0.80;99.90
21115;DHT22;10715;48.546;9.896;2023-11-22T13:37:44;0.80;99.90
21115;DHT22;10715;48.546;9.896;2023-11-22T13:40:11;0.80;99.90
21115;DHT22;10715;48.546;9.896;2023-11-22T13:42:43;0.80;99.90
21115;DHT22;10715;48.546;9.896;2023-11-22T13:45:12;0.80;99.90
21115;DHT22;10715;48.546;9.896;2023-11-22T13:47:42;0.80;99.90
21115;DHT22;10715;48.546;9.896;2023-11-22T13:50:09;0.80;99.90
21115;DHT22;10715;48.546;9.896;2023-11-22T13:52:35;0.80;99.90
21115;DHT22;10715;48.546;9.896;2023-11-22T13:55:01;0.80;99.90
21115;DHT22;10715;48.546;9.896;2023-11-22T13:57:30;0.80;99.90
21115;DHT22;10715;48.546;9.896;2023-11-22T13:59:57;0.80;99.90
21115;DHT22;10715;48.546;9.896;2023-11-22T14:02:24;0.70;99.90
21115;DHT22;10715;48.546;9.896;2023-11-22T14:04:49;0.70;99.90
21115;DHT22;10715;48.546;9.896;2023-11-22T14:07:15;0.70;99.90
21115;DHT22;10715;48.546;9.896;2023-11-22T14:09:41;0.70;99.90
21115;DHT22;10715;48.546;9.896;2023-11-22T14:12:06;0.70;99.90
21115;DHT22;10715;48.546;9.896;2023-11-22T14:14:32;0.70;99.90
21115;DHT22;10715;48.546;9.896;2023-11-22T14:16:58;0.70;99.90
21115;DHT22;10715;48.546;9.896;2023-11-22T14:19:24;0.70;99.90
21115;DHT22;10715;48.546;9.896;2023-11-22T14:21:49;0.70;99.90
21115;DHT22;10715;48.546;9.896;2023-11-22T14:24:15;0.70;99.90
21115;DHT22;10715;48.546;9.896;2023-11-22T14:26:41;0.70;99.90
21115;DHT22;10715;48.546;9.896;2023-11-22T14:29:06;0.70;99.90
21115;DHT22;10715;48.546;9.896;2023-11-22T14:31:33;0.70;99.90
21115;DHT22;10715;48.546;9.896;2023-11-22T14:33:59;0.70;99.90
21115;DHT22;10715;48.546;9.896;2023-11-22T14:36:24;0.70;99.90
21115;DHT22;10715;48.546;9.896;2023-11-22T14:38:51;0.70;99.90
21115;DHT22;10715;48.546;9.896;2023-11-22T14:41:22;0.70;99.90
21115;DHT22;10715;48.546;9.896;2023-11-22T14:43:48;0.70;99.90
21115;DHT22;10715;48.546;9.896;2023-11-22T14:46:16;0.70;99.90
21115;DHT22;10715;48.546;9.896;2023-11-22T14:48:44;0.70;99.90
21115;DHT22;10715;48.546;9.896;2023-11-22T14:51:12;0.70;99.90
21115;DHT22;10715;48.546;9.896;2023-11-22T14:53:38;0.70;99.90
21115;DHT22;10715;48.546;9.896;2023-11-22T14:56:10;0.60;99.90
21115;DHT22;10715;48.546;9.896;2023-11-22T14:58:35;0.60;99.90
21115;DHT22;10715;48.546;9.896;2023-11-22T15:01:01;0.60;99.90
21115;DHT22;10715;48.546;9.896;2023-11-22T15:03:30;0.60;99.90
21115;DHT22;10715;48.546;9.896;2023-11-22T15:05:57;0.60;99.90
21115;DHT22;10715;48.546;9.896;2023-11-22T15:08:23;0.60;99.90
21115;DHT22;10715;48.546;9.896;2023-11-22T15:10:55;0.60;99.90
21115;DHT22;10715;48.546;9.896;2023-11-22T15:13:21;0.60;99.90
21115;DHT22;10715;48.546;9.896;2023-11-22T15:15:47;0.60;99.90
21115;DHT22;10715;48.546;9.896;2023-11-22T15:18:13;0.60;99.90
21115;DHT22;10715;48.546;9.896;2023-11-22T15:20:38;0.60;99.90
21115;DHT22;10715;48.546;9.896;2023-11-22T15:23:05;0.60;99.90
21115;DHT22;10715;48.546;9.896;2023-11-22T15:25:31;0.50;99.90
21115;DHT22;10715;48.546;9.896;2023-11-22T15:27:58;0.50;99.90
21115;DHT22;10715;48.546;9.896;2023-11-22T15:30:27;0.50;99.90
21115;DHT22;10715;48.546;9.896;2023-11-22T15:32:53;0.50;99.90
21115;DHT22;10715;48.546;9.896;2023-11-22T15:35:19;0.50;99.90
21115;DHT22;10715;48.546;9.896;2023-11-22T15:37:45;0.60;99.90
21115;DHT22;10715;48.546;9.896;2023-11-22T15:40:12;0.60;99.90
21115;DHT22;10715;48.546;9.896;2023-11-22T15:42:38;0.60;99.90
21115;DHT22;10715;48.546;9.896;2023-11-22T15:45:06;0.60;99.90
21115;DHT22;10715;48.546;9.896;2023-11-22T15:47:33;0.60;99.90